sensor_id;sensor_type;location;lat;lon;timestamp;pressure;altitude;pressure_sealevel;temperature;humidity
13767;BME280;47980;48.794;9.176;2023-02-13T00:01:20;100178.28;;;3.46;100.00
13767;BME280;47980;48.794;9.176;2023-02-13T00:03:53;100182.38;;;3.42;100.00
13767;BME280;47980;48.794;9.176;2023-02-13T00:06:25;100176.09;;;3.43;100.00
13767;BME280;47980;48.794;9.176;2023-02-13T00:08:57;100180.06;;;3.34;100.00
13767;BME280;47980;48.794;9.176;2023-02-13T00:11:28;100174.94;;;3.27;100.00
13767;BME280;47980;48.794;9.176;2023-02-13T00:14:00;100175.25;;;3.19;100.00
13767;BME280;47980;48.794;9.176;2023-02-13T00:16:32;100173.91;;;3.28;100.00
13767;BME280;47980;48.794;9.176;2023-02-13T00:19:05;100181.78;;;3.28;100.00
13767;BME280;47980;48.794;9.176;2023-02-13T00:21:36;100180.31;;;3.44;100.00
13767;BME280;47980;48.794;9.176;2023-02-13T00:24:08;100182.03;;;3.38;100.00
13767;BME280;47980;48.794;9.176;2023-02-13T00:26:40;100175.94;;;3.14;100.00
13767;BME280;47980;48.794;9.176;2023-02-13T00:29:11;100174.53;;;3.12;100.00
13767;BME280;47980;48.794;9.176;2023-02-13T00:31:44;100171.91;;;3.12;100.00
13767;BME280;47980;48.794;9.176;2023-02-13T00:34:17;100174.19;;;3.08;100.00
13767;BME280;47980;48.794;9.176;2023-02-13T00:36:48;100179.03;;;3.23;100.00
13767;BME280;47980;48.794;9.176;2023-02-13T00:39:20;100162.13;;;3.19;100.00
13767;BME280;47980;48.794;9.176;2023-02-13T00:41:51;100172.25;;;3.04;100.00
13767;BME280;47980;48.794;9.176;2023-02-13T00:44:23;100176.44;;;3.05;100.00
13767;BME280;47980;48.794;9.176;2023-02-13T00:46:55;100168.56;;;2.93;100.00
13767;BME280;47980;48.794;9.176;2023-02-13T00:49:28;100173.34;;;2.96;100.00
13767;BME280;47980;48.794;9.176;2023-02-13T00:51:59;100165.56;;;2.89;100.00
13767;BME280;47980;48.794;9.176;2023-02-13T00:54:31;100177.88;;;2.89;100.00
13767;BME280;47980;48.794;9.176;2023-02-13T00:57:03;100174.13;;;2.85;100.00
13767;BME280;47980;48.794;9.176;2023-02-13T00:59:34;100175.19;;;2.96;100.00
13767;BME280;47980;48.794;9.176;2023-02-13T01:02:06;100172.28;;;2.85;100.00
13767;BME280;47980;48.794;9.176;2023-02-13T01:04:39;100163.63;;;2.85;100.00
13767;BME280;47980;48.794;9.176;2023-02-13T01:07:11;100165.47;;;2.84;100.00
13767;BME280;47980;48.794;9.176;2023-02-13T01:09:42;100158.88;;;2.94;100.00
13767;BME280;47980;48.794;9.176;2023-02-13T01:12:14;100163.63;;;2.85;100.00
13767;BME280;47980;48.794;9.176;2023-02-13T01:14:45;100171.19;;;2.93;100.00
13767;BME280;47980;48.794;9.176;2023-02-13T01:17:17;100162.69;;;2.79;100.00
13767;BME280;47980;48.794;9.176;2023-02-13T01:19:50;100158.88;;;2.94;100.00
13767;BME280;47980;48.794;9.176;2023-02-13T01:22:22;100157.44;;;2.79;100.00
13767;BME280;47980;48.794;9.176;2023-02-13T01:24:53;100164.34;;;2.92;100.00
13767;BME280;47980;48.794;9.176;2023-02-13T01:27:26;100159.69;;;2.94;100.00
13767;BME280;47980;48.794;9.176;2023-02-13T01:29:58;100160.84;;;2.98;100.00
13767;BME280;47980;48.794;9.176;2023-02-13T01:32:30;100153.28;;;2.90;100.00
13767;BME280;47980;48.794;9.176;2023-02-13T01:35:04;100143.97;;;2.76;100.00
13767;BME280;47980;48.794;9.176;2023-02-13T01:37:35;100151.19;;;2.80;100.00
13767;BME280;47980;48.794;9.176;2023-02-13T01:40:10;100156.88;;;2.77;100.00
13767;BME280;47980;48.794;9.176;2023-02-13T01:42:43;100147.28;;;2.71;100.00
13767;BME280;47980;48.794;9.176;2023-02-13T01:45:21;100144.19;;;2.62;100.00
13767;BME280;47980;48.794;9.176;2023-02-13T01:47:55;100153.97;;;2.67;100.00
13767;BME280;47980;48.794;9.176;2023-02-13T01:50:32;100156.09;;;2.77;100.00
13767;BME280;47980;48.794;9.176;2023-02-13T01:53:07;100152.91;;;2.86;100.00
13767;BME280;47980;48.794;9.176;2023-02-13T01:55:44;100142.53;;;2.80;100.00
13767;BME280;47980;48.794;9.176;2023-02-13T01:58:19;100155.34;;;2.88;100.00
13767;BME280;47980;48.794;9.176;2023-02-13T02:00:51;100149.16;;;2.82;100.00
13767;BME280;47980;48.794;9.176;2023-02-13T02:03:26;100157.91;;;2.76;100.00
13767;BME280;47980;48.794;9.176;2023-02-13T02:06:01;100151.81;;;2.64;100.00
13767;BME280;47980;48.794;9.176;2023-02-13T02:08:33;100153.34;;;2.53;100.00
13767;BME280;47980;48.794;9.176;2023-02-13T02:11:08;100149.78;;;2.66;100.00
13767;BME280;47980;48.794;9.176;2023-02-13T02:13:42;100147.59;;;2.63;100.00
13767;BME280;47980;48.794;9.176;2023-02-13T02:16:14;100156.41;;;2.50;100.00
13767;BME280;47980;48.794;9.176;2023-02-13T02:18:46;100157.28;;;2.44;100.00
13767;BME280;47980;48.794;9.176;2023-02-13T02:21:40;100154.38;;;2.52;100.00
13767;BME280;47980;48.794;9.176;2023-02-13T02:27:39;100155.53;;;2.38;100.00
13767;BME280;47980;48.794;9.176;2023-02-13T02:30:30;100153.16;;;2.36;100.00
13767;BME280;47980;48.794;9.176;2023-02-13T02:33:17;100144.47;;;2.36;100.00
13767;BME280;47980;48.794;9.176;2023-02-13T02:35:59;100152.50;;;2.41;100.00
13767;BME280;47980;48.794;9.176;2023-02-13T02:38:44;100150.06;;;2.39;100.00
13767;BME280;47980;48.794;9.176;2023-02-13T02:41:29;100152.84;;;2.45;100.00
13767;BME280;47980;48.794;9.176;2023-02-13T02:44:29;100150.22;;;2.45;100.00
13767;BME280;47980;48.794;9.176;2023-02-13T02:47:08;100150.66;;;2.41;100.00
13767;BME280;47980;48.794;9.176;2023-02-13T02:50:11;100145.72;;;2.33;100.00
13767;BME280;47980;48.794;9.176;2023-02-13T02:52:56;100141.16;;;2.29;100.00
13767;BME280;47980;48.794;9.176;2023-02-13T02:55:36;100137.88;;;2.33;100.00
13767;BME280;47980;48.794;9.176;2023-02-13T02:58:14;100144.41;;;2.24;100.00
13767;BME280;47980;48.794;9.176;2023-02-13T03:01:08;100142.88;;;2.35;100.00
13767;BME280;47980;48.794;9.176;2023-02-13T03:04:00;100142.59;;;2.25;100.00
13767;BME280;47980;48.794;9.176;2023-02-13T03:06:54;100149.22;;;2.27;100.00
13767;BME280;47980;48.794;9.176;2023-02-13T03:09:29;100153.16;;;2.36;100.00
13767;BME280;47980;48.794;9.176;2023-02-13T03:12:22;100153.16;;;2.18;100.00
13767;BME280;47980;48.794;9.176;2023-02-13T03:15:12;100156.03;;;2.10;100.00
13767;BME280;47980;48.794;9.176;2023-02-13T03:17:44;100150.38;;;2.13;100.00
13767;BME280;47980;48.794;9.176;2023-02-13T03:20:41;100142.81;;;2.23;100.00
13767;BME280;47980;48.794;9.176;2023-02-13T03:23:46;100143.41;;;2.25;100.00
13767;BME280;47980;48.794;9.176;2023-02-13T03:26:31;100155.47;;;2.26;100.00
13767;BME280;47980;48.794;9.176;2023-02-13T03:29:25;100151.59;;;2.10;100.00
13767;BME280;47980;48.794;9.176;2023-02-13T03:32:25;100155.69;;;2.06;100.00
13767;BME280;47980;48.794;9.176;2023-02-13T03:35:06;100162.19;;;2.22;100.00
13767;BME280;47980;48.794;9.176;2023-02-13T03:38:09;100158.47;;;2.30;100.00
13767;BME280;47980;48.794;9.176;2023-02-13T03:40:48;100153.28;;;2.23;100.00
13767;BME280;47980;48.794;9.176;2023-02-13T03:43:44;100165.94;;;2.08;100.00
13767;BME280;47980;48.794;9.176;2023-02-13T03:46:18;100160.13;;;2.06;100.00
13767;BME280;47980;48.794;9.176;2023-02-13T03:48:51;100169.50;;;2.13;100.00
13767;BME280;47980;48.794;9.176;2023-02-13T03:51:43;100171.19;;;2.08;100.00
13767;BME280;47980;48.794;9.176;2023-02-13T03:54:18;100164.91;;;2.09;100.00
13767;BME280;47980;48.794;9.176;2023-02-13T03:56:52;100161.56;;;2.02;100.00
13767;BME280;47980;48.794;9.176;2023-02-13T03:59:42;100164.44;;;2.19;100.00
13767;BME280;47980;48.794;9.176;2023-02-13T04:02:18;100176.50;;;2.20;100.00
13767;BME280;47980;48.794;9.176;2023-02-13T04:04:54;100183.97;;;2.16;100.00
13767;BME280;47980;48.794;9.176;2023-02-13T04:07:30;100182.75;;;2.00;100.00
13767;BME280;47980;48.794;9.176;2023-02-13T04:10:05;100191.22;;;2.14;100.00
13767;BME280;47980;48.794;9.176;2023-02-13T04:12:45;100186.81;;;2.14;100.00
13767;BME280;47980;48.794;9.176;2023-02-13T04:15:24;100197.66;;;2.18;100.00
13767;BME280;47980;48.794;9.176;2023-02-13T04:18:03;100196.63;;;2.19;100.00
13767;BME280;47980;48.794;9.176;2023-02-13T04:20:37;100192.69;;;2.10;100.00
13767;BME280;47980;48.794;9.176;2023-02-13T04:23:11;100192.91;;;2.08;100.00
13767;BME280;47980;48.794;9.176;2023-02-13T04:25:46;100188.72;;;2.07;100.00
13767;BME280;47980;48.794;9.176;2023-02-13T04:28:20;100184.88;;;1.85;100.00
13767;BME280;47980;48.794;9.176;2023-02-13T04:30:51;100187.66;;;1.90;100.00
13767;BME280;47980;48.794;9.176;2023-02-13T04:33:23;100189.06;;;1.92;100.00
13767;BME280;47980;48.794;9.176;2023-02-13T04:35:55;100198.03;;;1.78;100.00
13767;BME280;47980;48.794;9.176;2023-02-13T04:38:27;100192.53;;;1.86;100.00
13767;BME280;47980;48.794;9.176;2023-02-13T04:40:58;100189.31;;;1.84;100.00
13767;BME280;47980;48.794;9.176;2023-02-13T04:43:31;100188.88;;;1.87;100.00
13767;BME280;47980;48.794;9.176;2023-02-13T04:46:03;100190.56;;;1.82;100.00
13767;BME280;47980;48.794;9.176;2023-02-13T04:48:35;100196.59;;;1.82;100.00
13767;BME280;47980;48.794;9.176;2023-02-13T04:51:06;100192.16;;;1.83;100.00
13767;BME280;47980;48.794;9.176;2023-02-13T04:53:38;100196.59;;;1.82;100.00
13767;BME280;47980;48.794;9.176;2023-02-13T04:56:10;100195.59;;;1.77;100.00
13767;BME280;47980;48.794;9.176;2023-02-13T04:58:43;100213.50;;;1.80;100.00
13767;BME280;47980;48.794;9.176;2023-02-13T05:01:15;100214.94;;;1.76;100.00
13767;BME280;47980;48.794;9.176;2023-02-13T05:03:47;100204.81;;;1.61;100.00
13767;BME280;47980;48.794;9.176;2023-02-13T05:06:19;100213.03;;;1.64;100.00
13767;BME280;47980;48.794;9.176;2023-02-13T05:08:51;100212.59;;;1.67;100.00
13767;BME280;47980;48.794;9.176;2023-02-13T05:11:23;100216.22;;;1.66;100.00
13767;BME280;47980;48.794;9.176;2023-02-13T05:13:56;100202.47;;;1.53;100.00
13767;BME280;47980;48.794;9.176;2023-02-13T05:16:27;100200.03;;;1.51;100.00
13767;BME280;47980;48.794;9.176;2023-02-13T05:18:59;100205.50;;;1.50;100.00
13767;BME280;47980;48.794;9.176;2023-02-13T05:21:31;100195.44;;;1.47;100.00
13767;BME280;47980;48.794;9.176;2023-02-13T05:24:20;100207.69;;;1.53;100.00
13767;BME280;47980;48.794;9.176;2023-02-13T05:26:51;100204.63;;;1.56;100.00
13767;BME280;47980;48.794;9.176;2023-02-13T05:29:25;100208.44;;;1.60;100.00
13767;BME280;47980;48.794;9.176;2023-02-13T05:31:57;100216.91;;;1.55;100.00
13767;BME280;47980;48.794;9.176;2023-02-13T05:34:29;100211.47;;;1.57;100.00
13767;BME280;47980;48.794;9.176;2023-02-13T05:37:00;100208.47;;;1.53;100.00
13767;BME280;47980;48.794;9.176;2023-02-13T05:39:33;100196.97;;;1.61;100.00
13767;BME280;47980;48.794;9.176;2023-02-13T05:42:05;100206.06;;;1.52;100.00
13767;BME280;47980;48.794;9.176;2023-02-13T05:44:38;100197.22;;;1.53;100.00
13767;BME280;47980;48.794;9.176;2023-02-13T05:47:10;100200.84;;;1.52;100.00
13767;BME280;47980;48.794;9.176;2023-02-13T05:49:41;100209.06;;;1.55;100.00
13767;BME280;47980;48.794;9.176;2023-02-13T05:52:13;100204.63;;;1.56;100.00
13767;BME280;47980;48.794;9.176;2023-02-13T05:54:44;100197.00;;;1.54;100.00
13767;BME280;47980;48.794;9.176;2023-02-13T05:57:16;100204.69;;;1.49;100.00
13767;BME280;47980;48.794;9.176;2023-02-13T05:59:49;100206.28;;;1.50;100.00
13767;BME280;47980;48.794;9.176;2023-02-13T06:02:21;100197.84;;;1.48;100.00
13767;BME280;47980;48.794;9.176;2023-02-13T06:04:52;100199.16;;;1.32;100.00
13767;BME280;47980;48.794;9.176;2023-02-13T06:07:24;100190.31;;;1.33;100.00
13767;BME280;47980;48.794;9.176;2023-02-13T06:09:55;100193.19;;;1.25;100.00
13767;BME280;47980;48.794;9.176;2023-02-13T06:12:28;100201.03;;;1.25;100.00
13767;BME280;47980;48.794;9.176;2023-02-13T06:15:02;100191.56;;;1.31;100.00
13767;BME280;47980;48.794;9.176;2023-02-13T06:17:33;100198.00;;;1.28;100.00
13767;BME280;47980;48.794;9.176;2023-02-13T06:20:06;100202.34;;;1.34;100.00
13767;BME280;47980;48.794;9.176;2023-02-13T06:22:38;100206.38;;;1.37;100.00
13767;BME280;47980;48.794;9.176;2023-02-13T06:25:10;100208.41;;;1.35;100.00
13767;BME280;47980;48.794;9.176;2023-02-13T06:27:42;100195.81;;;1.18;100.00
13767;BME280;47980;48.794;9.176;2023-02-13T06:30:16;100208.22;;;1.30;100.00
13767;BME280;47980;48.794;9.176;2023-02-13T06:32:48;100206.59;;;1.35;100.00
13767;BME280;47980;48.794;9.176;2023-02-13T06:35:20;100205.22;;;1.26;100.00
13767;BME280;47980;48.794;9.176;2023-02-13T06:37:51;100200.59;;;1.28;100.00
13767;BME280;47980;48.794;9.176;2023-02-13T06:40:23;100214.78;;;1.46;100.00
13767;BME280;47980;48.794;9.176;2023-02-13T06:42:55;100200.69;;;1.47;100.00
13767;BME280;47980;48.794;9.176;2023-02-13T06:45:28;100219.34;;;1.50;100.00
13767;BME280;47980;48.794;9.176;2023-02-13T06:48:00;100209.31;;;1.47;100.00
13767;BME280;47980;48.794;9.176;2023-02-13T06:50:31;100219.88;;;1.59;100.00
13767;BME280;47980;48.794;9.176;2023-02-13T06:53:03;100209.72;;;1.76;100.00
13767;BME280;47980;48.794;9.176;2023-02-13T06:55:35;100214.72;;;1.77;100.00
13767;BME280;47980;48.794;9.176;2023-02-13T06:58:08;100216.00;;;1.68;100.00
13767;BME280;47980;48.794;9.176;2023-02-13T07:00:41;100216.06;;;1.86;100.00
13767;BME280;47980;48.794;9.176;2023-02-13T07:03:13;100210.34;;;1.96;100.00
13767;BME280;47980;48.794;9.176;2023-02-13T07:05:45;100219.19;;;1.95;100.00
13767;BME280;47980;48.794;9.176;2023-02-13T07:08:18;100218.66;;;2.11;100.00
13767;BME280;47980;48.794;9.176;2023-02-13T07:10:58;100216.56;;;2.20;100.00
13767;BME280;47980;48.794;9.176;2023-02-13T07:13:30;100227.78;;;1.77;100.00
13767;BME280;47980;48.794;9.176;2023-02-13T07:16:17;100221.50;;;2.28;100.00
13767;BME280;47980;48.794;9.176;2023-02-13T07:18:49;100222.84;;;1.69;100.00
13767;BME280;47980;48.794;9.176;2023-02-13T07:21:21;100230.53;;;1.89;100.00
13767;BME280;47980;48.794;9.176;2023-02-13T07:24:06;100226.22;;;1.76;100.00
13767;BME280;47980;48.794;9.176;2023-02-13T07:26:38;100237.69;;;1.75;100.00
13767;BME280;47980;48.794;9.176;2023-02-13T07:29:09;100237.66;;;1.82;100.00
13767;BME280;47980;48.794;9.176;2023-02-13T07:31:43;100228.66;;;1.96;100.00
13767;BME280;47980;48.794;9.176;2023-02-13T07:34:15;100235.53;;;2.15;100.00
13767;BME280;47980;48.794;9.176;2023-02-13T07:36:46;100228.50;;;2.34;100.00
13767;BME280;47980;48.794;9.176;2023-02-13T07:39:18;100224.78;;;2.24;100.00
13767;BME280;47980;48.794;9.176;2023-02-13T07:41:50;100234.91;;;2.57;100.00
13767;BME280;47980;48.794;9.176;2023-02-13T07:44:21;100242.63;;;2.52;100.00
13767;BME280;47980;48.794;9.176;2023-02-13T07:46:54;100238.41;;;2.69;100.00
13767;BME280;47980;48.794;9.176;2023-02-13T07:49:26;100234.34;;;2.73;100.00
13767;BME280;47980;48.794;9.176;2023-02-13T07:51:57;100239.13;;;2.95;99.15
13767;BME280;47980;48.794;9.176;2023-02-13T07:54:29;100238.59;;;2.86;97.29
13767;BME280;47980;48.794;9.176;2023-02-13T07:57:02;100243.88;;;3.16;97.23
13767;BME280;47980;48.794;9.176;2023-02-13T07:59:34;100237.09;;;3.27;96.91
13767;BME280;47980;48.794;9.176;2023-02-13T08:02:10;100232.94;;;3.19;97.08
13767;BME280;47980;48.794;9.176;2023-02-13T08:04:42;100230.41;;;3.43;95.55
13767;BME280;47980;48.794;9.176;2023-02-13T08:07:16;100235.91;;;3.53;94.79
13767;BME280;47980;48.794;9.176;2023-02-13T08:09:47;100228.41;;;3.68;95.10
13767;BME280;47980;48.794;9.176;2023-02-13T08:12:36;100232.06;;;4.02;92.44
13767;BME280;47980;48.794;9.176;2023-02-13T08:15:10;100232.63;;;3.81;91.15
13767;BME280;47980;48.794;9.176;2023-02-13T08:17:43;100227.81;;;3.66;90.92
13767;BME280;47980;48.794;9.176;2023-02-13T08:20:15;100234.03;;;4.19;91.90
13767;BME280;47980;48.794;9.176;2023-02-13T08:22:46;100240.66;;;4.33;91.56
13767;BME280;47980;48.794;9.176;2023-02-13T08:25:18;100240.03;;;4.43;90.33
13767;BME280;47980;48.794;9.176;2023-02-13T08:27:50;100239.34;;;4.59;88.84
13767;BME280;47980;48.794;9.176;2023-02-13T08:30:21;100234.41;;;4.74;86.76
13767;BME280;47980;48.794;9.176;2023-02-13T08:32:54;100230.13;;;4.85;87.66
13767;BME280;47980;48.794;9.176;2023-02-13T08:35:26;100232.22;;;4.83;86.28
13767;BME280;47980;48.794;9.176;2023-02-13T08:38:01;100230.00;;;4.92;87.53
13767;BME280;47980;48.794;9.176;2023-02-13T08:40:33;100229.88;;;4.98;85.22
13767;BME280;47980;48.794;9.176;2023-02-13T08:43:05;100224.31;;;5.12;85.68
13767;BME280;47980;48.794;9.176;2023-02-13T08:45:37;100220.38;;;5.26;85.40
13767;BME280;47980;48.794;9.176;2023-02-13T08:48:10;100223.84;;;5.15;86.19
13767;BME280;47980;48.794;9.176;2023-02-13T08:50:42;100216.81;;;5.32;84.91
13767;BME280;47980;48.794;9.176;2023-02-13T08:53:13;100218.16;;;5.51;84.38
13767;BME280;47980;48.794;9.176;2023-02-13T08:55:51;100219.47;;;5.49;83.60
13767;BME280;47980;48.794;9.176;2023-02-13T08:58:22;100220.81;;;5.68;83.77
13767;BME280;47980;48.794;9.176;2023-02-13T09:00:54;100217.88;;;5.82;80.82
13767;BME280;47980;48.794;9.176;2023-02-13T09:03:27;100215.00;;;5.66;81.85
13767;BME280;47980;48.794;9.176;2023-02-13T09:06:00;100218.53;;;5.89;82.54
13767;BME280;47980;48.794;9.176;2023-02-13T09:08:33;100219.63;;;6.10;81.97
13767;BME280;47980;48.794;9.176;2023-02-13T09:11:05;100224.34;;;5.57;82.04
13767;BME280;47980;48.794;9.176;2023-02-13T09:13:36;100223.09;;;6.10;81.79
13767;BME280;47980;48.794;9.176;2023-02-13T09:16:09;100226.94;;;6.24;81.40
13767;BME280;47980;48.794;9.176;2023-02-13T09:18:42;100220.09;;;5.90;80.42
13767;BME280;47980;48.794;9.176;2023-02-13T09:21:17;100227.03;;;6.13;80.42
13767;BME280;47980;48.794;9.176;2023-02-13T09:23:49;100218.38;;;6.34;78.80
13767;BME280;47980;48.794;9.176;2023-02-13T09:26:22;100224.63;;;6.28;78.23
13767;BME280;47980;48.794;9.176;2023-02-13T09:28:54;100215.41;;;6.47;78.98
13767;BME280;47980;48.794;9.176;2023-02-13T09:31:25;100215.91;;;6.66;78.42
13767;BME280;47980;48.794;9.176;2023-02-13T09:33:59;100209.03;;;6.87;77.08
13767;BME280;47980;48.794;9.176;2023-02-13T09:36:30;100215.41;;;7.18;75.27
13767;BME280;47980;48.794;9.176;2023-02-13T09:39:02;100220.25;;;7.27;74.99
13767;BME280;47980;48.794;9.176;2023-02-13T09:41:35;100220.19;;;7.21;74.69
13767;BME280;47980;48.794;9.176;2023-02-13T09:44:12;100222.03;;;6.94;74.65
13767;BME280;47980;48.794;9.176;2023-02-13T09:47:05;100222.94;;;6.61;77.73
13767;BME280;47980;48.794;9.176;2023-02-13T09:49:44;100226.56;;;6.98;76.59
13767;BME280;47980;48.794;9.176;2023-02-13T09:52:16;100228.28;;;7.15;74.98
13767;BME280;47980;48.794;9.176;2023-02-13T09:54:48;100225.69;;;7.47;72.69
13767;BME280;47980;48.794;9.176;2023-02-13T09:57:25;100229.34;;;7.41;72.12
13767;BME280;47980;48.794;9.176;2023-02-13T10:00:03;100229.06;;;7.37;73.68
13767;BME280;47980;48.794;9.176;2023-02-13T10:02:52;100227.25;;;7.43;73.57
13767;BME280;47980;48.794;9.176;2023-02-13T10:05:43;100226.13;;;7.34;74.83
13767;BME280;47980;48.794;9.176;2023-02-13T10:08:26;100227.81;;;7.45;72.92
13767;BME280;47980;48.794;9.176;2023-02-13T10:11:10;100230.75;;;7.48;72.42
13767;BME280;47980;48.794;9.176;2023-02-13T10:13:58;100229.50;;;7.56;72.73
13767;BME280;47980;48.794;9.176;2023-02-13T10:16:34;100225.97;;;7.78;73.27
13767;BME280;47980;48.794;9.176;2023-02-13T10:19:14;100222.47;;;7.72;72.28
13767;BME280;47980;48.794;9.176;2023-02-13T10:21:51;100224.25;;;7.61;71.32
13767;BME280;47980;48.794;9.176;2023-02-13T10:24:33;100229.13;;;7.47;72.09
13767;BME280;47980;48.794;9.176;2023-02-13T10:27:16;100227.25;;;7.43;71.94
13767;BME280;47980;48.794;9.176;2023-02-13T10:29:54;100220.53;;;7.30;72.13
13767;BME280;47980;48.794;9.176;2023-02-13T10:32:50;100214.41;;;7.52;72.91
13767;BME280;47980;48.794;9.176;2023-02-13T10:35:41;100213.81;;;7.44;72.84
13767;BME280;47980;48.794;9.176;2023-02-13T10:38:19;100218.56;;;7.47;71.71
13767;BME280;47980;48.794;9.176;2023-02-13T10:41:04;100213.94;;;7.33;73.21
13767;BME280;47980;48.794;9.176;2023-02-13T10:43:38;100218.28;;;7.44;73.00
13767;BME280;47980;48.794;9.176;2023-02-13T10:46:21;100211.88;;;7.67;70.93
13767;BME280;47980;48.794;9.176;2023-02-13T10:49:09;100212.06;;;7.28;73.53
13767;BME280;47980;48.794;9.176;2023-02-13T10:51:54;100207.34;;;7.62;71.84
13767;BME280;47980;48.794;9.176;2023-02-13T10:54:42;100199.56;;;7.83;70.09
13767;BME280;47980;48.794;9.176;2023-02-13T10:57:21;100197.44;;;7.80;70.60
13767;BME280;47980;48.794;9.176;2023-02-13T11:00:03;100199.09;;;7.91;70.12
13767;BME280;47980;48.794;9.176;2023-02-13T11:02:35;100194.28;;;7.83;70.75
13767;BME280;47980;48.794;9.176;2023-02-13T11:05:15;100176.81;;;8.19;67.46
13767;BME280;47980;48.794;9.176;2023-02-13T11:07:48;100186.97;;;7.95;70.65
13767;BME280;47980;48.794;9.176;2023-02-13T11:10:23;100178.09;;;8.11;70.14
13767;BME280;47980;48.794;9.176;2023-02-13T11:12:55;100172.88;;;8.27;69.50
13767;BME280;47980;48.794;9.176;2023-02-13T11:15:29;100178.88;;;8.64;69.09
13767;BME280;47980;48.794;9.176;2023-02-13T11:18:12;100179.88;;;8.43;67.06
13767;BME280;47980;48.794;9.176;2023-02-13T11:20:45;100183.13;;;8.65;67.05
13767;BME280;47980;48.794;9.176;2023-02-13T11:23:32;100181.53;;;8.70;68.21
13767;BME280;47980;48.794;9.176;2023-02-13T11:26:08;100173.59;;;8.64;66.84
13767;BME280;47980;48.794;9.176;2023-02-13T11:28:47;100168.31;;;8.64;65.58
13767;BME280;47980;48.794;9.176;2023-02-13T11:31:23;100169.09;;;8.70;65.61
13767;BME280;47980;48.794;9.176;2023-02-13T11:33:56;100176.22;;;8.59;66.35
13767;BME280;47980;48.794;9.176;2023-02-13T11:36:30;100177.28;;;8.63;65.69
13767;BME280;47980;48.794;9.176;2023-02-13T11:39:04;100179.63;;;8.55;67.41
13767;BME280;47980;48.794;9.176;2023-02-13T11:41:39;100178.66;;;8.76;66.82
13767;BME280;47980;48.794;9.176;2023-02-13T11:44:21;100178.66;;;8.81;66.23
13767;BME280;47980;48.794;9.176;2023-02-13T11:46:57;100176.84;;;9.02;65.05
13767;BME280;47980;48.794;9.176;2023-02-13T11:49:31;100177.13;;;9.21;65.03
13767;BME280;47980;48.794;9.176;2023-02-13T11:52:05;100172.66;;;9.11;64.02
13767;BME280;47980;48.794;9.176;2023-02-13T11:54:40;100167.63;;;9.15;63.58
13767;BME280;47980;48.794;9.176;2023-02-13T11:57:20;100167.84;;;9.19;63.91
13767;BME280;47980;48.794;9.176;2023-02-13T11:59:52;100165.19;;;8.88;64.31
13767;BME280;47980;48.794;9.176;2023-02-13T12:02:25;100165.44;;;8.81;63.83
13767;BME280;47980;48.794;9.176;2023-02-13T12:05:13;100169.34;;;8.63;64.88
13767;BME280;47980;48.794;9.176;2023-02-13T12:07:46;100155.34;;;8.68;64.88
13767;BME280;47980;48.794;9.176;2023-02-13T12:10:21;100167.28;;;8.86;63.87
13767;BME280;47980;48.794;9.176;2023-02-13T12:12:55;100165.19;;;8.88;64.17
13767;BME280;47980;48.794;9.176;2023-02-13T12:15:30;100169.69;;;8.82;64.26
13767;BME280;47980;48.794;9.176;2023-02-13T12:18:08;100159.63;;;8.89;64.80
13767;BME280;47980;48.794;9.176;2023-02-13T12:20:53;100155.94;;;8.90;63.93
13767;BME280;47980;48.794;9.176;2023-02-13T12:23:34;100163.88;;;9.06;64.15
13767;BME280;47980;48.794;9.176;2023-02-13T12:26:18;100156.75;;;9.06;63.28
13767;BME280;47980;48.794;9.176;2023-02-13T12:29:18;100159.66;;;9.25;63.54
13767;BME280;47980;48.794;9.176;2023-02-13T12:32:02;100155.16;;;9.26;63.69
13767;BME280;47980;48.794;9.176;2023-02-13T12:34:58;100158.91;;;9.30;63.29
13767;BME280;47980;48.794;9.176;2023-02-13T12:37:44;100159.94;;;9.34;63.65
13767;BME280;47980;48.794;9.176;2023-02-13T12:40:29;100156.22;;;9.40;62.78
13767;BME280;47980;48.794;9.176;2023-02-13T12:43:23;100160.47;;;9.41;62.21
13767;BME280;47980;48.794;9.176;2023-02-13T12:46:04;100153.84;;;9.38;63.63
13767;BME280;47980;48.794;9.176;2023-02-13T12:48:40;100140.88;;;9.37;63.37
13767;BME280;47980;48.794;9.176;2023-02-13T12:51:23;100142.69;;;9.62;62.43
13767;BME280;47980;48.794;9.176;2023-02-13T12:54:07;100142.72;;;9.36;62.92
13767;BME280;47980;48.794;9.176;2023-02-13T12:57:10;100136.09;;;9.49;63.35
13767;BME280;47980;48.794;9.176;2023-02-13T12:59:53;100135.84;;;9.46;61.95
13767;BME280;47980;48.794;9.176;2023-02-13T13:03:00;100140.06;;;9.57;62.85
13767;BME280;47980;48.794;9.176;2023-02-13T13:05:49;100138.72;;;9.54;61.01
13767;BME280;47980;48.794;9.176;2023-02-13T13:08:43;100131.56;;;9.55;62.65
13767;BME280;47980;48.794;9.176;2023-02-13T13:11:31;100132.09;;;9.67;61.34
13767;BME280;47980;48.794;9.176;2023-02-13T13:14:11;100131.84;;;9.53;61.92
13767;BME280;47980;48.794;9.176;2023-02-13T13:16:54;100129.19;;;9.69;62.65
13767;BME280;47980;48.794;9.176;2023-02-13T13:19:35;100126.28;;;9.29;63.34
13767;BME280;47980;48.794;9.176;2023-02-13T13:22:15;100122.84;;;9.59;64.16
13767;BME280;47980;48.794;9.176;2023-02-13T13:24:55;100117.56;;;9.59;62.40
13767;BME280;47980;48.794;9.176;2023-02-13T13:27:35;100124.66;;;9.79;61.34
13767;BME280;47980;48.794;9.176;2023-02-13T13:30:15;100132.31;;;9.91;62.05
13767;BME280;47980;48.794;9.176;2023-02-13T13:32:53;100124.94;;;9.73;62.15
13767;BME280;47980;48.794;9.176;2023-02-13T13:35:28;100121.16;;;10.04;60.99
13767;BME280;47980;48.794;9.176;2023-02-13T13:38:04;100110.03;;;10.02;59.83
13767;BME280;47980;48.794;9.176;2023-02-13T13:40:44;100117.47;;;9.95;60.47
13767;BME280;47980;48.794;9.176;2023-02-13T13:43:22;100114.50;;;10.07;59.97
13767;BME280;47980;48.794;9.176;2023-02-13T13:46:05;100107.88;;;10.09;60.85
13767;BME280;47980;48.794;9.176;2023-02-13T13:48:58;100113.72;;;10.01;61.61